createdAt,value
2019-01-02T00:01:04.647Z,1.93
2019-01-02T00:03:33.702Z,2.67
2019-01-02T00:06:02.849Z,2.00
2019-01-02T00:08:32.055Z,2.10
2019-01-02T00:11:01.131Z,2.00
2019-01-02T00:13:30.788Z,2.23
2019-01-02T00:16:00.152Z,1.63
2019-01-02T00:18:29.506Z,2.33
2019-01-02T00:20:58.721Z,1.60
2019-01-02T00:23:28.962Z,2.30
2019-01-02T00:25:58.048Z,2.33
2019-01-02T00:28:27.228Z,2.30
2019-01-02T00:30:56.452Z,4.13
2019-01-02T00:33:25.462Z,2.17
2019-01-02T00:35:54.988Z,2.47
2019-01-02T00:38:24.290Z,3.20
2019-01-02T00:40:53.776Z,2.83
2019-01-02T00:43:23.138Z,2.70
2019-01-02T00:45:52.770Z,2.50
2019-01-02T00:48:21.839Z,2.83
2019-01-02T00:50:51.220Z,3.40
2019-01-02T00:53:20.562Z,2.77
2019-01-02T00:55:50.130Z,2.47
2019-01-02T00:58:19.226Z,3.20
2019-01-02T01:00:51.848Z,2.70
2019-01-02T01:03:20.996Z,2.00
2019-01-02T01:05:50.534Z,2.93
2019-01-02T01:08:20.544Z,2.40
2019-01-02T01:10:50.152Z,2.10
2019-01-02T01:13:19.230Z,2.70
2019-01-02T01:15:48.935Z,2.37
2019-01-02T01:18:18.065Z,2.33
2019-01-02T01:20:47.855Z,2.47
2019-01-02T01:23:17.393Z,2.50
2019-01-02T01:25:46.852Z,2.37
2019-01-02T01:28:15.848Z,2.40
2019-01-02T01:30:45.194Z,2.50
2019-01-02T01:33:14.720Z,2.70
2019-01-02T01:35:43.814Z,2.43
2019-01-02T01:38:13.192Z,2.47
2019-01-02T01:40:42.766Z,2.63
2019-01-02T01:43:11.836Z,2.23
2019-01-02T01:45:41.297Z,2.33
2019-01-02T01:48:10.769Z,2.72
2019-01-02T01:50:39.847Z,2.10
2019-01-02T01:53:09.503Z,2.20
2019-01-02T01:55:38.568Z,2.60
2019-01-02T01:58:07.665Z,2.37
2019-01-02T02:00:36.963Z,2.60
2019-01-02T02:03:06.026Z,1.90
2019-01-02T02:05:55.017Z,2.70
2019-01-02T02:08:24.897Z,3.23
2019-01-02T02:10:54.834Z,2.37
2019-01-02T02:13:24.283Z,3.00
2019-01-02T02:15:53.393Z,2.93
2019-01-02T02:18:22.510Z,2.13
2019-01-02T02:20:52.386Z,2.63
2019-01-02T02:23:21.640Z,2.20
2019-01-02T02:25:50.737Z,2.90
2019-01-02T02:28:20.078Z,3.00
2019-01-02T02:30:49.169Z,2.83
2019-01-02T02:33:18.843Z,2.93
2019-01-02T02:35:48.505Z,2.90
2019-01-02T02:38:18.082Z,2.83
2019-01-02T02:40:47.519Z,3.23
2019-01-02T02:43:16.737Z,3.03
2019-01-02T02:45:45.832Z,2.60
2019-01-02T02:48:15.227Z,2.93
2019-01-02T02:50:45.017Z,2.57
2019-01-02T02:53:14.374Z,2.80
2019-01-02T02:55:44.438Z,2.63
2019-01-02T02:58:13.936Z,2.37
2019-01-02T03:00:43.602Z,2.70
2019-01-02T03:03:13.025Z,3.10
2019-01-02T03:05:42.338Z,3.83
2019-01-02T03:08:11.490Z,2.20
2019-01-02T03:10:40.854Z,2.30
2019-01-02T03:13:10.548Z,2.83
2019-01-02T03:15:40.004Z,1.90
2019-01-02T03:18:09.404Z,2.40
2019-01-02T03:20:38.551Z,2.70
2019-01-02T03:23:07.478Z,2.70
2019-01-02T03:25:37.338Z,2.87
2019-01-02T03:28:07.070Z,3.17
2019-01-02T03:30:36.641Z,2.27
2019-01-02T03:33:06.308Z,2.93
2019-01-02T03:35:35.576Z,2.77
2019-01-02T03:38:04.650Z,3.10
2019-01-02T03:40:33.714Z,3.10
2019-01-02T03:43:02.990Z,3.23
2019-01-02T03:45:32.128Z,2.37
2019-01-02T03:48:01.238Z,3.00
2019-01-02T03:50:30.578Z,3.13
2019-01-02T03:52:59.579Z,3.20
2019-01-02T03:55:28.655Z,3.10
2019-01-02T03:57:58.063Z,2.90
2019-01-02T04:00:29.107Z,2.90
2019-01-02T04:02:59.021Z,2.23
2019-01-02T04:05:28.450Z,2.50
2019-01-02T04:08:07.463Z,2.67
2019-01-02T04:10:36.627Z,2.50
2019-01-02T04:13:05.695Z,2.10
2019-01-02T04:15:34.943Z,2.97
2019-01-02T04:18:03.946Z,3.23
2019-01-02T04:20:33.078Z,3.60
2019-01-02T04:23:02.528Z,3.00
2019-01-02T04:25:31.585Z,3.63
2019-01-02T04:28:00.933Z,2.70
2019-01-02T04:30:30.228Z,2.77
2019-01-02T04:32:59.342Z,3.03
2019-01-02T04:35:28.413Z,2.37
2019-01-02T04:37:57.816Z,3.00
2019-01-02T04:40:26.884Z,2.70
2019-01-02T04:42:55.899Z,2.93
2019-01-02T04:45:25.114Z,2.10
2019-01-02T04:47:54.116Z,2.67
2019-01-02T04:50:23.263Z,2.47
2019-01-02T04:52:52.492Z,3.13
2019-01-02T04:55:21.647Z,2.27
2019-01-02T04:57:50.654Z,2.93
2019-01-02T05:00:23.053Z,2.00
2019-01-02T05:02:52.155Z,2.40
2019-01-02T05:05:21.219Z,2.63
2019-01-02T05:07:50.441Z,2.30
2019-01-02T05:10:19.661Z,3.17
2019-01-02T05:12:48.829Z,2.40
2019-01-02T05:15:18.241Z,2.17
2019-01-02T05:17:47.415Z,2.50
2019-01-02T05:20:17.033Z,1.83
2019-01-02T05:22:46.268Z,2.60
2019-01-02T05:25:15.435Z,2.50
2019-01-02T05:27:44.511Z,2.00
2019-01-02T05:30:18.868Z,2.60
2019-01-02T05:32:48.020Z,3.13
2019-01-02T05:35:17.173Z,2.30
2019-01-02T05:37:46.442Z,2.40
2019-01-02T05:40:20.763Z,2.03
2019-01-02T05:42:50.115Z,2.27
2019-01-02T05:45:19.273Z,2.17
2019-01-02T05:47:48.872Z,2.00
2019-01-02T05:50:18.059Z,2.10
2019-01-02T05:52:47.267Z,3.13
2019-01-02T05:55:16.411Z,2.27
2019-01-02T05:57:45.736Z,2.10
2019-01-02T06:00:19.374Z,2.07
2019-01-02T06:02:48.781Z,2.37
2019-01-02T06:05:18.238Z,2.50
2019-01-02T06:07:47.357Z,2.27
2019-01-02T06:10:16.748Z,3.73
2019-01-02T06:12:45.806Z,2.80
2019-01-02T06:15:16.548Z,2.43
2019-01-02T06:17:45.994Z,3.07
2019-01-02T06:20:16.828Z,3.10
2019-01-02T06:22:46.043Z,3.13
2019-01-02T06:25:15.345Z,2.97
2019-01-02T06:27:44.438Z,3.17
2019-01-02T06:30:22.227Z,3.60
2019-01-02T06:32:51.308Z,3.30
2019-01-02T06:35:20.409Z,3.03
2019-01-02T06:37:49.646Z,3.10
2019-01-02T06:40:18.692Z,3.10
2019-01-02T06:42:47.879Z,3.73
2019-01-02T06:45:18.853Z,3.97
2019-01-02T06:47:47.941Z,3.37
2019-01-02T06:50:20.523Z,2.53
2019-01-02T06:52:49.585Z,1.97
2019-01-02T06:55:18.698Z,1.60
2019-01-02T06:57:48.016Z,2.00
2019-01-02T07:00:21.694Z,1.53
2019-01-02T07:02:51.028Z,1.97
2019-01-02T07:05:20.291Z,2.27
2019-01-02T07:07:49.440Z,1.93
2019-01-02T07:13:01.124Z,1.77
2019-01-02T07:15:30.197Z,1.80
2019-01-02T07:17:59.311Z,2.00
2019-01-02T07:20:28.514Z,2.23
2019-01-02T07:22:57.582Z,2.10
2019-01-02T07:25:26.742Z,2.73
2019-01-02T07:27:56.000Z,2.90
2019-01-02T07:30:25.835Z,2.90
2019-01-02T07:32:55.011Z,2.40
2019-01-02T07:36:02.309Z,2.93
2019-01-02T07:39:27.465Z,1.80
2019-01-02T07:42:33.555Z,2.50
2019-01-02T07:45:24.477Z,2.80
2019-01-02T07:48:34.019Z,2.30
2019-01-02T07:51:26.544Z,2.90
2019-01-02T07:54:32.864Z,2.47
2019-01-02T07:57:23.201Z,2.37
2019-01-02T08:00:44.648Z,2.47
2019-01-02T08:03:58.623Z,2.27
2019-01-02T08:06:57.277Z,2.07
2019-01-02T08:10:09.171Z,2.50
2019-01-02T08:13:15.449Z,2.47
2019-01-02T08:16:11.638Z,2.20
2019-01-02T08:19:22.557Z,1.93
2019-01-02T08:22:30.368Z,2.23
2019-01-02T08:25:26.701Z,2.53
2019-01-02T08:28:58.217Z,2.50
2019-01-02T08:32:03.110Z,2.17
2019-01-02T08:35:13.614Z,2.47
2019-01-02T08:38:26.485Z,2.23
2019-01-02T08:41:41.872Z,2.30
2019-01-02T08:44:42.808Z,2.20
2019-01-02T08:47:44.935Z,2.30
2019-01-02T08:50:54.307Z,2.60
2019-01-02T08:54:05.811Z,2.60
2019-01-02T08:57:08.481Z,2.07
2019-01-02T09:00:28.905Z,2.20
2019-01-02T09:03:31.783Z,3.03
2019-01-02T09:06:36.823Z,2.57
2019-01-02T09:09:54.437Z,2.33
2019-01-02T09:13:13.468Z,2.50
2019-01-02T09:16:38.701Z,2.03
2019-01-02T09:20:01.893Z,2.13
2019-01-02T09:23:36.398Z,2.40
2019-01-02T09:26:20.998Z,2.90
2019-01-02T09:29:12.399Z,2.27
2019-01-02T09:32:00.438Z,2.30
2019-01-02T09:35:08.314Z,1.90
2019-01-02T09:38:40.202Z,2.83
2019-01-02T09:41:43.714Z,3.17
2019-01-02T09:45:00.185Z,1.80
2019-01-02T09:48:28.794Z,2.30
2019-01-02T09:51:34.840Z,2.10
2019-01-02T09:54:40.190Z,2.50
2019-01-02T09:57:50.899Z,2.53
2019-01-02T10:00:48.737Z,2.60
2019-01-02T10:03:44.087Z,1.80
2019-01-02T10:06:47.047Z,1.93
2019-01-02T10:10:18.784Z,1.97
2019-01-02T10:13:35.103Z,2.30
2019-01-02T10:16:52.327Z,2.03
2019-01-02T10:20:04.835Z,2.30
2019-01-02T10:23:02.447Z,2.90
2019-01-02T10:25:56.853Z,2.17
2019-01-02T10:29:38.001Z,3.53
2019-01-02T10:32:51.320Z,2.90
2019-01-02T10:35:51.900Z,2.30
2019-01-02T10:38:40.409Z,2.40
2019-01-02T10:41:35.034Z,2.70
2019-01-02T10:44:51.291Z,2.60
2019-01-02T10:47:46.093Z,2.13
2019-01-02T10:50:57.063Z,2.10
2019-01-02T10:54:13.639Z,2.20
2019-01-02T10:57:30.387Z,3.10
2019-01-02T11:00:35.408Z,2.80
2019-01-02T11:04:00.943Z,1.90
2019-01-02T11:07:12.853Z,2.03
2019-01-02T11:10:36.038Z,2.23
2019-01-02T11:13:31.804Z,1.83
2019-01-02T11:16:29.390Z,2.15
2019-01-02T11:19:38.238Z,2.60
2019-01-02T11:22:32.817Z,2.63
2019-01-02T11:25:39.486Z,2.43
2019-01-02T11:28:48.835Z,2.47
2019-01-02T11:32:08.122Z,3.07
2019-01-02T11:35:06.344Z,2.70
2019-01-02T11:38:06.401Z,2.93
2019-01-02T11:41:09.584Z,2.73
2019-01-02T11:44:21.173Z,2.70
2019-01-02T11:46:46.083Z,2.93
2019-01-02T11:49:15.187Z,3.03
2019-01-02T11:51:44.340Z,2.90
2019-01-02T11:54:13.559Z,2.90
2019-01-02T11:56:42.699Z,3.07
2019-01-02T11:59:11.773Z,2.80
2019-01-02T12:01:41.067Z,3.40
2019-01-02T12:04:10.207Z,3.00
2019-01-02T12:06:39.328Z,2.40
2019-01-02T12:09:09.638Z,2.75
2019-01-02T12:11:38.745Z,3.07
2019-01-02T12:14:08.807Z,2.80
2019-01-02T12:16:38.102Z,3.13
2019-01-02T12:19:07.140Z,3.33
2019-01-02T12:21:36.275Z,3.53
2019-01-02T12:24:05.593Z,3.07
2019-01-02T12:26:35.320Z,3.13
2019-01-02T12:29:04.784Z,2.90
2019-01-02T12:31:34.121Z,2.93
2019-01-02T12:34:03.274Z,3.20
2019-01-02T12:36:32.371Z,3.20
2019-01-02T12:39:01.791Z,3.30
2019-01-02T12:41:43.099Z,2.97
2019-01-02T12:44:12.277Z,3.03
2019-01-02T12:46:41.405Z,2.80
2019-01-02T12:49:10.529Z,3.10
2019-01-02T12:51:40.073Z,2.30
2019-01-02T12:54:09.266Z,3.37
2019-01-02T12:56:38.400Z,3.10
2019-01-02T12:59:08.057Z,2.73
2019-01-02T13:02:11.285Z,2.70
2019-01-02T13:05:04.230Z,2.40
2019-01-02T13:08:23.568Z,2.30
2019-01-02T13:11:10.508Z,3.07
2019-01-02T13:14:15.588Z,2.50
2019-01-02T13:17:11.142Z,2.93
2019-01-02T13:20:06.401Z,2.73
2019-01-02T13:23:28.315Z,2.70
2019-01-02T13:26:03.237Z,2.67
2019-01-02T13:29:10.420Z,2.33
2019-01-02T13:32:28.586Z,3.33
2019-01-02T13:35:09.551Z,3.03
2019-01-02T13:38:17.430Z,2.43
2019-01-02T13:41:23.206Z,3.10
2019-01-02T13:44:38.596Z,2.85
2019-01-02T13:47:51.622Z,3.63
2019-01-02T13:51:06.181Z,2.43
2019-01-02T13:53:35.475Z,2.73
2019-01-02T13:56:05.672Z,3.93
2019-01-02T13:58:34.703Z,3.13
2019-01-02T14:01:04.083Z,3.50
2019-01-02T14:03:33.127Z,2.87
2019-01-02T14:06:02.776Z,2.40
2019-01-02T14:08:32.095Z,2.03
2019-01-02T14:11:01.234Z,2.53
2019-01-02T14:13:30.312Z,2.17
2019-01-02T14:15:59.573Z,2.30
2019-01-02T14:18:28.665Z,2.20
2019-01-02T14:20:57.719Z,2.40
2019-01-02T14:23:27.077Z,2.73
2019-01-02T14:25:56.175Z,2.60
2019-01-02T14:28:25.343Z,2.13
2019-01-02T14:30:54.779Z,2.33
2019-01-02T14:33:23.933Z,2.27
2019-01-02T14:35:53.050Z,2.13
2019-01-02T14:38:22.264Z,2.23
2019-01-02T14:40:51.373Z,1.97
2019-01-02T14:43:20.467Z,1.43
2019-01-02T14:45:49.859Z,1.73
2019-01-02T14:48:19.019Z,2.20
2019-01-02T14:50:48.050Z,2.00
2019-01-02T14:53:17.284Z,2.10
2019-01-02T14:55:46.456Z,2.07
2019-01-02T14:58:15.662Z,1.87
2019-01-02T15:00:46.054Z,2.70
2019-01-02T15:03:15.269Z,3.07
2019-01-02T15:05:44.283Z,3.17
2019-01-02T15:08:13.446Z,2.80
2019-01-02T15:10:42.514Z,2.63
2019-01-02T15:13:17.444Z,2.80
2019-01-02T15:15:46.541Z,2.60
2019-01-02T15:18:15.632Z,4.27
2019-01-02T15:20:44.970Z,2.67
2019-01-02T15:23:14.116Z,2.87
2019-01-02T15:25:43.202Z,4.13
2019-01-02T15:28:12.658Z,3.00
2019-01-02T15:30:42.721Z,3.47
2019-01-02T15:33:11.808Z,3.53
2019-01-02T15:35:41.178Z,3.03
2019-01-02T15:38:10.386Z,2.97
2019-01-02T15:40:39.492Z,3.00
2019-01-02T15:43:27.688Z,4.43
2019-01-02T15:45:57.642Z,2.87
2019-01-02T15:48:26.740Z,2.60
2019-01-02T15:50:55.934Z,2.73
2019-01-02T15:53:24.969Z,2.67
2019-01-02T15:55:54.055Z,2.87
2019-01-02T15:58:23.207Z,2.90
2019-01-02T16:00:52.319Z,2.87
2019-01-02T16:03:21.319Z,2.70
2019-01-02T16:05:50.559Z,3.27
2019-01-02T16:08:19.536Z,2.33
2019-01-02T16:10:48.613Z,2.30
2019-01-02T16:13:17.689Z,1.87
2019-01-02T16:15:46.752Z,2.20
2019-01-02T16:18:15.826Z,2.10
2019-01-02T16:20:45.057Z,2.17
2019-01-02T16:23:14.140Z,2.73
2019-01-02T16:25:43.240Z,2.00
2019-01-02T16:28:12.453Z,2.73
2019-01-02T16:30:41.431Z,2.37
2019-01-02T16:33:10.529Z,2.90
2019-01-02T16:35:39.935Z,2.30
2019-01-02T16:38:09.001Z,4.37
2019-01-02T16:40:38.127Z,15.50
2019-01-02T16:43:07.333Z,14.50
2019-01-02T16:45:36.419Z,11.50
2019-01-02T16:48:05.749Z,16.27
2019-01-02T16:50:35.122Z,11.50
2019-01-02T16:53:04.220Z,6.70
2019-01-02T16:55:33.426Z,4.63
2019-01-02T16:58:02.775Z,2.87
2019-01-02T17:00:32.859Z,2.90
2019-01-02T17:03:01.941Z,2.73
2019-01-02T17:05:31.244Z,3.00
2019-01-02T17:08:00.409Z,3.10
2019-01-02T17:10:29.503Z,2.90
2019-01-02T17:12:58.729Z,2.37
2019-01-02T17:15:27.831Z,2.33
2019-01-02T17:17:56.990Z,2.60
2019-01-02T17:20:26.309Z,2.37
2019-01-02T17:22:55.562Z,2.23
2019-01-02T17:25:24.644Z,2.77
2019-01-02T17:27:53.720Z,2.20
2019-01-02T17:30:22.948Z,2.13
2019-01-02T17:32:51.981Z,1.90
2019-01-02T17:35:21.206Z,2.60
2019-01-02T17:37:50.346Z,2.23
2019-01-02T17:40:19.785Z,2.40
2019-01-02T17:43:08.248Z,1.77
2019-01-02T17:45:37.316Z,2.40
2019-01-02T17:48:06.379Z,2.80
2019-01-02T17:50:35.642Z,2.93
2019-01-02T17:53:04.958Z,2.27
2019-01-02T17:55:33.976Z,2.30
2019-01-02T17:58:03.098Z,3.13
2019-01-02T18:00:32.190Z,2.90
2019-01-02T18:03:01.288Z,2.80
2019-01-02T18:05:49.725Z,3.30
2019-01-02T18:08:18.895Z,2.97
2019-01-02T18:10:47.962Z,3.77
2019-01-02T18:13:17.186Z,3.00
2019-01-02T18:15:46.275Z,2.53
2019-01-02T18:18:15.279Z,3.00
2019-01-02T18:20:44.656Z,3.00
2019-01-02T18:23:13.711Z,2.97
2019-01-02T18:25:42.726Z,2.30
2019-01-02T18:28:12.037Z,2.40
2019-01-02T18:30:41.164Z,2.97
2019-01-02T18:33:10.183Z,2.60
2019-01-02T18:35:39.246Z,3.53
2019-01-02T18:38:08.388Z,3.30
2019-01-02T18:40:37.419Z,3.27
2019-01-02T18:43:06.668Z,2.83
2019-01-02T18:45:35.750Z,3.43
2019-01-02T18:48:04.800Z,4.17
2019-01-02T18:50:34.107Z,3.33
2019-01-02T18:53:03.100Z,3.13
2019-01-02T18:55:32.159Z,4.03
2019-01-02T18:58:01.487Z,5.00
2019-01-02T19:00:30.602Z,4.60
2019-01-02T19:02:59.656Z,4.60
2019-01-02T19:05:28.812Z,3.63
2019-01-02T19:07:57.743Z,4.00
2019-01-02T19:10:26.857Z,5.30
2019-01-02T19:12:56.962Z,4.00
2019-01-02T19:15:26.083Z,3.80
2019-01-02T19:17:55.739Z,2.83
2019-01-02T19:20:24.978Z,3.10
2019-01-02T19:22:54.121Z,3.20
2019-01-02T19:25:23.175Z,2.77
2019-01-02T19:27:52.263Z,3.03
2019-01-02T19:30:21.313Z,2.10
2019-01-02T19:32:50.373Z,1.87
2019-01-02T19:35:19.689Z,2.00
2019-01-02T19:37:48.729Z,2.87
2019-01-02T19:40:17.838Z,3.10
2019-01-02T19:42:47.010Z,3.57
2019-01-02T19:45:16.118Z,3.80
2019-01-02T19:47:45.192Z,5.07
2019-01-02T19:50:14.329Z,4.03
2019-01-02T19:52:43.467Z,4.40
2019-01-02T19:55:12.529Z,4.40
2019-01-02T19:57:41.765Z,3.93
2019-01-02T20:00:13.211Z,4.70
2019-01-02T20:02:42.360Z,4.03
2019-01-02T20:05:11.659Z,4.17
2019-01-02T20:07:40.745Z,3.83
2019-01-02T20:10:10.634Z,3.93
2019-01-02T20:12:39.869Z,5.90
2019-01-02T20:15:11.590Z,3.57
2019-01-02T20:17:40.801Z,4.03
2019-01-02T20:20:11.702Z,4.27
2019-01-02T20:22:40.880Z,2.83
2019-01-02T20:25:10.248Z,2.90
2019-01-02T20:27:39.419Z,4.20
2019-01-02T20:30:11.131Z,3.00
2019-01-02T20:32:40.496Z,4.70
2019-01-02T20:35:09.679Z,2.73
2019-01-02T20:37:38.916Z,2.90
2019-01-02T20:40:08.847Z,3.00
2019-01-02T20:42:38.010Z,2.37
2019-01-02T20:45:07.270Z,2.27
2019-01-02T20:47:36.366Z,2.33
2019-01-02T20:50:06.756Z,2.70
2019-01-02T20:52:36.067Z,2.37
2019-01-02T20:55:05.153Z,1.97
2019-01-02T20:57:34.256Z,1.97
2019-01-02T21:00:03.435Z,2.50
2019-01-02T21:02:32.573Z,2.40
2019-01-02T21:05:01.656Z,1.90
2019-01-02T21:07:30.947Z,1.47
2019-01-02T21:10:00.039Z,1.70
2019-01-02T21:12:29.056Z,1.80
2019-01-02T21:14:58.339Z,1.87
2019-01-02T21:17:27.460Z,2.40
2019-01-02T21:19:56.463Z,2.50
2019-01-02T21:22:25.857Z,2.07
2019-01-02T21:24:55.031Z,1.63
2019-01-02T21:27:24.094Z,1.70
2019-01-02T21:29:53.311Z,2.00
2019-01-02T21:32:22.437Z,1.80
2019-01-02T21:34:51.585Z,2.40
2019-01-02T21:37:20.795Z,2.57
2019-01-02T21:39:49.925Z,2.27
2019-01-02T21:42:19.034Z,2.00
2019-01-02T21:44:48.239Z,2.40
2019-01-02T21:47:17.361Z,1.90
2019-01-02T21:49:46.761Z,1.67
2019-01-02T21:52:16.080Z,1.50
2019-01-02T21:54:45.272Z,1.70
2019-01-02T21:57:14.415Z,1.60
2019-01-02T21:59:43.827Z,2.13
2019-01-02T22:02:12.907Z,1.60
2019-01-02T22:04:41.917Z,1.20
2019-01-02T22:07:11.207Z,1.30
2019-01-02T22:09:40.316Z,1.60
2019-01-02T22:12:09.467Z,2.40
2019-01-02T22:14:38.956Z,2.07
2019-01-02T22:17:08.064Z,1.97
2019-01-02T22:19:37.274Z,1.50
2019-01-02T22:22:06.441Z,1.47
2019-01-02T22:24:35.476Z,1.80
2019-01-02T22:27:04.541Z,1.90
2019-01-02T22:29:33.874Z,1.10
2019-01-02T22:32:03.061Z,1.70
2019-01-02T22:34:32.133Z,1.57
2019-01-02T22:37:01.495Z,1.30
2019-01-02T22:39:30.597Z,1.40
2019-01-02T22:42:00.574Z,1.70
2019-01-02T22:44:29.787Z,1.40
2019-01-02T22:46:58.925Z,1.73
2019-01-02T22:49:28.040Z,1.27
2019-01-02T22:51:57.190Z,1.07
2019-01-02T22:54:26.240Z,1.70
2019-01-02T22:56:55.428Z,1.07
2019-01-02T22:59:24.555Z,1.97
2019-01-02T23:02:16.992Z,0.87
2019-01-02T23:05:03.976Z,1.47
2019-01-02T23:08:07.014Z,1.10
2019-01-02T23:10:58.271Z,1.00
2019-01-02T23:13:49.286Z,1.23
2019-01-02T23:16:37.271Z,1.43
2019-01-02T23:19:27.977Z,1.30
2019-01-02T23:22:14.712Z,0.80
2019-01-02T23:25:01.324Z,1.80
2019-01-02T23:27:49.705Z,1.23
2019-01-02T23:30:34.881Z,1.07
2019-01-02T23:33:41.177Z,1.60
2019-01-02T23:36:29.210Z,1.23
2019-01-02T23:39:20.583Z,1.10
2019-01-02T23:42:10.895Z,1.40
2019-01-02T23:45:02.384Z,1.60
2019-01-02T23:48:05.500Z,1.63
2019-01-02T23:51:08.693Z,1.43
2019-01-02T23:53:56.813Z,1.70
2019-01-02T23:56:56.922Z,1.33
2019-01-02T23:59:42.789Z,1.90
